createdAt,value
2022-08-22T00:01:39.665Z,79.4
2022-08-22T00:02:47.030Z,72.7
2022-08-22T00:03:02.741Z,71.1
2022-08-22T00:03:03.386Z,63.5
2022-08-22T00:03:08.440Z,71.1
2022-08-22T00:03:37.281Z,79.4
2022-08-22T00:05:42.869Z,79.5
2022-08-22T00:07:40.483Z,79.6
2022-08-22T00:09:38.110Z,79.5
2022-08-22T00:11:35.703Z,79.6
2022-08-22T00:13:33.294Z,79.6
2022-08-22T00:15:43.511Z,79.6
2022-08-22T00:17:28.495Z,79.8
2022-08-22T00:19:34.051Z,80.2
2022-08-22T00:21:31.679Z,80.3
2022-08-22T00:23:29.305Z,80.3
2022-08-22T00:25:26.912Z,80.4
2022-08-22T00:27:24.519Z,80.3
2022-08-22T00:33:25.296Z,80.3
2022-08-22T00:39:18.177Z,80.3
2022-08-22T00:41:15.769Z,80.2
2022-08-22T00:47:16.567Z,80.5
2022-08-22T00:51:11.768Z,80.7
2022-08-22T00:53:29.116Z,80.8
2022-08-22T00:55:26.723Z,80.9
2022-08-22T01:01:27.581Z,80.9
2022-08-22T01:03:25.133Z,81.2
2022-08-22T01:15:18.792Z,81.7
2022-08-22T01:17:16.381Z,81.8
2022-08-22T01:23:09.213Z,82.2
2022-08-22T01:29:10.434Z,82.4
2022-08-22T01:31:07.568Z,82.4
2022-08-22T01:33:05.181Z,82.4
2022-08-22T01:35:02.783Z,82.4
2022-08-22T01:37:00.401Z,82.5
2022-08-22T01:38:58.014Z,82.5
2022-08-22T01:41:03.591Z,82.6
2022-08-22T01:43:01.204Z,82.6
2022-08-22T01:44:58.828Z,82.6
2022-08-22T01:46:01.609Z,82.6
2022-08-22T01:47:59.435Z,82.7
2022-08-22T01:49:56.841Z,82.8
2022-08-22T01:55:57.648Z,83.6
2022-08-22T01:57:55.377Z,83.8
2022-08-22T01:59:52.938Z,84
2022-08-22T02:09:48.936Z,84.3
2022-08-22T02:11:46.570Z,84.3
2022-08-22T02:13:44.181Z,84.4
2022-08-22T02:15:41.798Z,84.5
2022-08-22T02:17:39.412Z,84.6
2022-08-22T02:19:37.066Z,84.8
2022-08-22T02:23:40.238Z,85.5
2022-08-22T02:25:37.866Z,85.8
2022-08-22T02:31:30.743Z,86.3
2022-08-22T02:33:28.337Z,86.5
2022-08-22T02:35:33.929Z,86.9
2022-08-22T02:37:31.554Z,87.1
2022-08-22T02:39:29.167Z,87.4
2022-08-22T02:40:31.963Z,87.8
2022-08-22T02:42:29.599Z,88.2
2022-08-22T02:44:27.200Z,88.5
2022-08-22T02:46:24.825Z,88.9
2022-08-22T02:48:30.417Z,89.6
2022-08-22T02:50:28.004Z,89.8
2022-08-22T02:58:18.426Z,90.1
2022-08-22T03:00:32.120Z,90.1
2022-08-22T03:02:21.633Z,90.1
2022-08-22T03:04:23.882Z,90
2022-08-22T03:06:16.897Z,90.1
2022-08-22T03:08:14.475Z,90.1
2022-08-22T03:10:12.091Z,90.1
2022-08-22T03:12:09.730Z,90.2
2022-08-22T03:14:07.352Z,90.3
2022-08-22T03:18:10.539Z,90.5
2022-08-22T03:20:08.151Z,90.7
2022-08-22T03:22:05.893Z,90.8
2022-08-22T03:24:03.394Z,90.9
2022-08-22T03:26:01.050Z,90.9
2022-08-22T03:27:58.662Z,91.1
2022-08-22T03:30:04.272Z,91.2
2022-08-22T03:32:01.864Z,91.2
2022-08-22T03:34:01.047Z,91.2
2022-08-22T03:37:01.352Z,91
2022-08-22T03:38:58.969Z,90.9
2022-08-22T03:40:56.609Z,90.9
2022-08-22T03:43:02.188Z,91
2022-08-22T03:44:59.803Z,91.1
2022-08-22T03:46:57.404Z,91.3
2022-08-22T03:50:54.541Z,91.6
2022-08-22T03:52:50.297Z,91.6
2022-08-22T03:54:47.924Z,91.7
2022-08-22T03:56:54.091Z,91.9
2022-08-22T03:58:51.092Z,92
2022-08-22T04:00:48.771Z,92
2022-08-22T04:02:46.334Z,92.1
2022-08-22T04:04:43.964Z,92.2
2022-08-22T04:06:41.561Z,92.2
2022-08-22T04:08:43.910Z,92.3
2022-08-22T04:14:39.975Z,92.5
2022-08-22T04:16:37.596Z,92.5
2022-08-22T04:18:35.200Z,92.6
2022-08-22T04:20:32.823Z,92.6
2022-08-22T04:22:30.434Z,92.6
2022-08-22T04:24:35.990Z,92.7
2022-08-22T04:26:33.770Z,92.8
2022-08-22T04:28:31.242Z,92.8
2022-08-22T04:30:58.188Z,92.9
2022-08-22T04:32:55.786Z,93
2022-08-22T04:36:59.006Z,93.2
2022-08-22T04:38:56.592Z,93.2
2022-08-22T04:40:54.201Z,93.3
2022-08-22T04:42:51.824Z,93.3
2022-08-22T04:44:49.466Z,93.3
2022-08-22T04:46:47.052Z,93.3
2022-08-22T04:48:44.691Z,93.3
2022-08-22T04:50:50.272Z,93.3
2022-08-22T04:52:47.877Z,93.3
2022-08-22T04:56:43.161Z,93.3
2022-08-22T04:58:40.719Z,93.4
2022-08-22T05:00:38.334Z,93.5
2022-08-22T05:02:35.950Z,93.5
2022-08-22T05:04:41.530Z,93.8
2022-08-22T05:06:39.341Z,93.9
2022-08-22T05:08:36.805Z,94
2022-08-22T05:10:34.417Z,94.3
2022-08-22T05:12:32.025Z,94.5
2022-08-22T05:14:29.630Z,94.7
2022-08-22T05:16:27.238Z,94.9
2022-08-22T05:18:32.793Z,95.3
2022-08-22T05:20:30.434Z,95.3
2022-08-22T05:22:28.042Z,95.4
2022-08-22T05:25:28.448Z,95.6
2022-08-22T05:27:26.068Z,95.8
2022-08-22T05:29:23.723Z,95.9
2022-08-22T05:33:26.959Z,96.5
2022-08-22T05:39:19.803Z,97.1
2022-08-22T05:41:17.429Z,97.3
2022-08-22T05:43:15.040Z,97.4
2022-08-22T05:45:20.608Z,97.5
2022-08-22T05:47:18.248Z,97.6
2022-08-22T05:49:15.880Z,97.7
2022-08-22T05:53:11.157Z,97.8
2022-08-22T05:55:08.737Z,97.9
2022-08-22T05:57:07.957Z,97.9
2022-08-22T05:59:11.948Z,98
2022-08-22T06:01:09.582Z,98
2022-08-22T06:03:07.174Z,98
2022-08-22T06:05:08.647Z,98
2022-08-22T06:10:57.644Z,98
2022-08-22T06:15:00.834Z,98.1
2022-08-22T06:16:58.452Z,98.1
2022-08-22T06:18:01.250Z,98.1
2022-08-22T06:19:58.849Z,98.1
2022-08-22T06:21:56.457Z,98.2
2022-08-22T06:23:54.107Z,98.2
2022-08-22T06:25:59.675Z,98
2022-08-22T06:27:57.496Z,98
2022-08-22T06:33:50.156Z,97.8
2022-08-22T06:35:47.829Z,97.8
2022-08-22T06:37:45.360Z,97.9
2022-08-22T06:39:50.997Z,98
2022-08-22T06:41:48.546Z,98
2022-08-22T06:43:46.157Z,98.1
2022-08-22T06:45:43.802Z,98.1
2022-08-22T06:47:41.414Z,98.1
2022-08-22T06:49:39.035Z,98.1
2022-08-22T06:51:36.618Z,98
2022-08-22T06:53:47.671Z,97.9
2022-08-22T06:55:39.815Z,97.9
2022-08-22T06:57:37.423Z,97.7
2022-08-22T06:59:35.019Z,97.5
2022-08-22T07:01:32.656Z,97.4
2022-08-22T07:03:30.228Z,97.1
2022-08-22T07:05:27.886Z,96.8
2022-08-22T07:07:33.423Z,96.2
2022-08-22T07:09:31.034Z,96.1
2022-08-22T07:11:28.657Z,95.8
2022-08-22T07:12:31.429Z,95.7
2022-08-22T07:14:29.029Z,95.6
2022-08-22T07:16:26.666Z,95.6
2022-08-22T07:18:24.221Z,95.5
2022-08-22T07:20:29.773Z,95.3
2022-08-22T07:22:27.401Z,95.2
2022-08-22T07:24:25.004Z,95
2022-08-22T07:28:20.190Z,94.5
2022-08-22T07:30:17.792Z,94.1
2022-08-22T07:32:15.387Z,93.7
2022-08-22T07:34:20.945Z,93.1
2022-08-22T07:36:18.546Z,92.9
2022-08-22T07:40:13.859Z,92.8
2022-08-22T07:42:11.381Z,92.8
2022-08-22T07:44:08.980Z,92.7
2022-08-22T07:46:06.563Z,92.4
2022-08-22T07:48:12.193Z,92.1
2022-08-22T07:50:09.732Z,91.9
2022-08-22T07:52:07.325Z,91.8
2022-08-22T07:54:04.934Z,91.6
2022-08-22T07:56:02.512Z,91.5
2022-08-22T07:58:00.288Z,91.4
2022-08-22T07:59:57.689Z,91.2
2022-08-22T08:02:03.224Z,90.7
2022-08-22T08:04:00.828Z,90.5
2022-08-22T08:05:58.423Z,90.1
2022-08-22T08:08:21.624Z,87.7
2022-08-22T08:10:19.218Z,87.5
2022-08-22T08:12:16.818Z,87.4
2022-08-22T08:14:22.343Z,86.7
2022-08-22T08:16:19.941Z,86.9
2022-08-22T08:18:17.512Z,86.3
2022-08-22T08:20:15.150Z,85.4
2022-08-22T08:22:12.696Z,83.9
2022-08-22T08:26:07.866Z,81.2
2022-08-22T08:30:14.775Z,79.7
2022-08-22T08:34:06.173Z,79.6
2022-08-22T08:36:04.120Z,79.2
2022-08-22T08:38:01.345Z,78.9
2022-08-22T08:39:59.028Z,78.6
2022-08-22T08:42:04.462Z,77.8
2022-08-22T08:44:02.021Z,77.6
2022-08-22T08:45:59.595Z,78
2022-08-22T08:47:57.147Z,77.9
2022-08-22T08:49:54.724Z,74.7
2022-08-22T08:53:49.842Z,74.7
2022-08-22T08:59:50.516Z,74.4
2022-08-22T09:00:53.354Z,74.4
2022-08-22T09:04:48.409Z,74.4
2022-08-22T09:08:55.500Z,73.7
2022-08-22T09:10:49.092Z,73.3
2022-08-22T09:12:56.969Z,72.2
2022-08-22T09:14:45.728Z,71.5
2022-08-22T09:18:40.805Z,70.1
2022-08-22T09:20:38.338Z,70
2022-08-22T09:22:49.870Z,69.8
2022-08-22T09:24:41.401Z,69.8
2022-08-22T09:26:38.959Z,69.8
2022-08-22T09:28:36.515Z,69.6
2022-08-22T09:30:34.070Z,69.4
2022-08-22T09:32:31.592Z,69.1
2022-08-22T09:36:34.663Z,68.8
2022-08-22T09:38:33.075Z,68.7
2022-08-22T09:40:29.747Z,68.5
2022-08-22T09:44:24.815Z,68
2022-08-22T09:46:22.336Z,67.7
2022-08-22T09:48:19.858Z,67.2
2022-08-22T09:50:25.366Z,65.7
2022-08-22T09:54:20.391Z,65.2
2022-08-22T09:55:34.941Z,64.8
2022-08-22T09:59:18.184Z,64.5
2022-08-22T10:01:15.769Z,64.5
2022-08-22T10:03:21.210Z,64.2
2022-08-22T10:05:40.270Z,64.1
2022-08-22T10:07:16.242Z,63.8
2022-08-22T10:09:13.758Z,63.4
2022-08-22T10:11:11.238Z,62.5
2022-08-22T10:15:06.993Z,61.3
2022-08-22T10:17:11.718Z,60.6
2022-08-22T10:19:09.245Z,60.3
2022-08-22T10:21:06.720Z,60.2
2022-08-22T10:23:04.238Z,60.2
2022-08-22T10:25:01.732Z,60.1
2022-08-22T10:26:59.216Z,60.1
2022-08-22T10:28:56.701Z,59.8
2022-08-22T10:31:02.203Z,59.2
2022-08-22T10:32:59.793Z,58.8
2022-08-22T10:34:57.152Z,58.5
2022-08-22T10:36:53.262Z,57.4
2022-08-22T10:38:50.811Z,56.7
2022-08-22T10:40:48.303Z,56.3
2022-08-22T10:42:45.792Z,55.7
2022-08-22T10:44:51.231Z,55.3
2022-08-22T10:46:48.703Z,55
2022-08-22T10:48:46.189Z,55
2022-08-22T10:49:51.108Z,55
2022-08-22T10:51:46.421Z,55.1
2022-08-22T10:57:50.711Z,55.5
2022-08-22T10:59:44.303Z,55.5
2022-08-22T11:05:36.688Z,54.2
2022-08-22T11:09:36.885Z,53.5
2022-08-22T11:11:37.053Z,52.7
2022-08-22T11:13:34.497Z,52.8
2022-08-22T11:15:34.982Z,52.6
2022-08-22T11:21:24.255Z,50.9
2022-08-22T11:23:21.757Z,50.6
2022-08-22T11:25:34.108Z,50.1
2022-08-22T11:27:25.311Z,50.3
2022-08-22T11:29:21.961Z,50.2
2022-08-22T11:31:19.372Z,50.2
2022-08-22T11:35:14.216Z,49.4
2022-08-22T11:37:12.313Z,48.8
2022-08-22T11:39:18.162Z,47.9
2022-08-22T11:41:14.372Z,47.5
2022-08-22T11:43:12.071Z,46.5
2022-08-22T11:45:34.430Z,45.7
2022-08-22T11:47:31.798Z,45.3
2022-08-22T11:49:32.718Z,45
2022-08-22T11:51:34.462Z,42.4
2022-08-22T11:53:31.870Z,42.1
2022-08-22T11:59:23.692Z,42.1
2022-08-22T12:01:20.993Z,43.3
2022-08-22T12:05:26.470Z,44.6
2022-08-22T12:09:18.196Z,44.7
2022-08-22T12:11:15.494Z,44.1
2022-08-22T12:13:12.790Z,43.4
2022-08-22T12:17:07.374Z,43.1
2022-08-22T12:19:13.227Z,43.1
2022-08-22T12:21:09.971Z,42.9
2022-08-22T12:25:04.583Z,43
2022-08-22T12:27:01.842Z,42.5
2022-08-22T12:28:59.123Z,42.2
2022-08-22T12:30:56.428Z,41.9
2022-08-22T12:33:01.721Z,41.4
2022-08-22T12:34:59.011Z,41.4
2022-08-22T12:36:56.279Z,41.3
2022-08-22T12:37:58.939Z,41.3
2022-08-22T12:39:56.271Z,41.3
2022-08-22T12:41:53.498Z,41.1
2022-08-22T12:43:50.774Z,41
2022-08-22T12:45:56.097Z,40.9
2022-08-22T12:47:53.375Z,41
2022-08-22T12:49:52.514Z,40.9
2022-08-22T12:51:47.955Z,41
2022-08-22T12:53:45.242Z,41.3
2022-08-22T12:55:42.543Z,41.3
2022-08-22T12:57:39.817Z,41.5
2022-08-22T12:59:45.185Z,41.7
2022-08-22T13:01:43.469Z,41.8
2022-08-22T13:05:40.652Z,41.9
2022-08-22T13:09:31.652Z,42.3
2022-08-22T13:11:28.972Z,42.5
2022-08-22T13:13:37.056Z,42.4
2022-08-22T13:15:31.741Z,42.3
2022-08-22T13:17:28.875Z,41.6
2022-08-22T13:19:26.176Z,40.6
2022-08-22T13:21:23.493Z,40.2
2022-08-22T13:23:20.796Z,39.7
2022-08-22T13:25:25.468Z,39.3
2022-08-22T13:27:23.361Z,38.6
2022-08-22T13:29:26.945Z,38.4
2022-08-22T13:31:17.897Z,38.2
2022-08-22T13:36:15.047Z,38.1
2022-08-22T13:38:12.538Z,38
2022-08-22T13:40:17.695Z,38.4
2022-08-22T13:42:27.583Z,38.5
2022-08-22T13:46:11.017Z,38.8
2022-08-22T13:48:08.959Z,38.8
2022-08-22T13:50:03.824Z,38.9
2022-08-22T13:52:01.049Z,39
2022-08-22T13:54:11.135Z,38.8
2022-08-22T13:56:03.598Z,39
2022-08-22T13:58:00.841Z,39.4
2022-08-22T14:00:05.876Z,41.3
2022-08-22T14:01:55.372Z,41.6
2022-08-22T14:03:52.593Z,42.2
2022-08-22T14:05:49.899Z,42.6
2022-08-22T14:07:55.200Z,42.7
2022-08-22T14:09:54.226Z,42.8
2022-08-22T14:11:49.728Z,42.6
2022-08-22T14:13:47.055Z,42.2
2022-08-22T14:15:45.300Z,42.1
2022-08-22T14:17:42.884Z,42.3
2022-08-22T14:19:52.618Z,42.2
2022-08-22T14:21:44.197Z,42.4
2022-08-22T14:23:41.485Z,42.7
2022-08-22T14:25:38.858Z,42.7
2022-08-22T14:26:47.338Z,42.6
2022-08-22T14:28:38.727Z,42.4
2022-08-22T14:30:36.027Z,42.2
2022-08-22T14:32:35.348Z,42.2
2022-08-22T14:34:38.654Z,42
2022-08-22T14:36:35.946Z,41.7
2022-08-22T14:38:33.239Z,41.2
2022-08-22T14:40:30.564Z,40.8
2022-08-22T14:42:27.837Z,40.3
2022-08-22T14:44:25.181Z,39.8
2022-08-22T14:46:22.482Z,39.5
2022-08-22T14:48:30.267Z,39.4
2022-08-22T14:50:25.103Z,39.3
2022-08-22T14:54:21.267Z,39.6
2022-08-22T14:56:18.567Z,39.8
2022-08-22T14:58:15.831Z,39.9
2022-08-22T15:00:13.117Z,39.7
2022-08-22T15:02:18.469Z,39.4
2022-08-22T15:04:19.496Z,39.2
2022-08-22T15:06:13.076Z,39.2
2022-08-22T15:08:10.402Z,39.3
2022-08-22T15:10:07.805Z,39.9
2022-08-22T15:12:05.033Z,40.1
2022-08-22T15:14:02.320Z,40.3
2022-08-22T15:16:09.499Z,40.2
2022-08-22T15:18:05.232Z,40.1
2022-08-22T15:20:02.322Z,39.7
2022-08-22T15:22:25.769Z,39.3
2022-08-22T15:24:20.229Z,39.1
2022-08-22T15:26:17.540Z,38.9
2022-08-22T15:28:22.918Z,38.7
2022-08-22T15:30:21.075Z,38.5
2022-08-22T15:34:18.031Z,38.5
2022-08-22T15:36:12.269Z,38.5
2022-08-22T15:40:08.571Z,38.5
2022-08-22T15:42:12.312Z,38.4
2022-08-22T15:44:11.958Z,38.5
2022-08-22T15:50:01.783Z,38.1
2022-08-22T15:51:59.018Z,37.9
2022-08-22T15:53:56.361Z,37.8
2022-08-22T15:56:04.894Z,37.5
2022-08-22T15:57:59.288Z,37.4
2022-08-22T15:59:56.438Z,37.5
2022-08-22T16:01:53.796Z,37.5
2022-08-22T16:03:51.105Z,37.5
2022-08-22T16:05:53.186Z,37.5
2022-08-22T16:07:45.853Z,37.6
2022-08-22T16:09:51.201Z,37.5
2022-08-22T16:11:48.573Z,37.5
2022-08-22T16:13:45.933Z,37.6
2022-08-22T16:14:48.620Z,37.6
2022-08-22T16:16:45.980Z,37.6
2022-08-22T16:18:43.366Z,37.7
2022-08-22T16:20:40.761Z,37.6
2022-08-22T16:22:47.423Z,37.7
2022-08-22T16:24:43.498Z,37.9
2022-08-22T16:26:40.882Z,37.9
2022-08-22T16:28:57.250Z,38
2022-08-22T16:30:35.653Z,38.1
2022-08-22T16:32:33.045Z,38.2
2022-08-22T16:34:30.446Z,38.4
2022-08-22T16:38:36.487Z,38.8
2022-08-22T16:40:30.745Z,38.9
2022-08-22T16:42:28.057Z,39.1
2022-08-22T16:44:25.507Z,39
2022-08-22T16:46:22.889Z,39
2022-08-22T16:48:20.321Z,38.9
2022-08-22T16:50:25.731Z,38.9
2022-08-22T16:54:20.550Z,38.9
2022-08-22T16:56:17.978Z,38.9
2022-08-22T16:58:15.396Z,39.1
2022-08-22T17:00:12.829Z,39.3
2022-08-22T17:02:10.247Z,39.5
2022-08-22T17:04:15.675Z,40.1
2022-08-22T17:06:13.123Z,40.4
2022-08-22T17:08:10.531Z,40.7
2022-08-22T17:09:13.243Z,40.9
2022-08-22T17:11:10.681Z,41.2
2022-08-22T17:13:08.118Z,41.7
2022-08-22T17:15:05.614Z,41.8
2022-08-22T17:17:10.988Z,41.7
2022-08-22T17:19:08.458Z,41.6
2022-08-22T17:21:05.897Z,41.6
2022-08-22T17:23:03.334Z,41.7
2022-08-22T17:25:00.770Z,42.4
2022-08-22T17:26:58.217Z,42.8
2022-08-22T17:28:55.668Z,43
2022-08-22T17:31:01.103Z,42.9
2022-08-22T17:32:59.188Z,42.8
2022-08-22T17:34:55.990Z,42.4
2022-08-22T17:36:53.429Z,41.9
2022-08-22T17:38:50.898Z,41.5
2022-08-22T17:40:48.340Z,41.3
2022-08-22T17:44:51.246Z,41
2022-08-22T17:46:48.666Z,41.1
2022-08-22T17:48:46.121Z,41.2
2022-08-22T17:50:43.608Z,41.4
2022-08-22T17:52:41.046Z,41.5
2022-08-22T17:54:38.495Z,41.5
2022-08-22T17:58:44.063Z,42.4
2022-08-22T18:00:38.850Z,43.1
2022-08-22T18:02:36.325Z,44.6
2022-08-22T18:03:39.048Z,45.2
2022-08-22T18:05:36.504Z,45.9
2022-08-22T18:07:33.966Z,46.4
2022-08-22T18:09:31.429Z,47
2022-08-22T18:11:40.344Z,47.8
2022-08-22T18:13:34.326Z,48
2022-08-22T18:15:31.805Z,48.1
2022-08-22T18:17:29.267Z,48.3
2022-08-22T18:21:24.263Z,48.4
2022-08-22T18:23:39.303Z,48.5
2022-08-22T18:25:27.180Z,48.6
2022-08-22T18:27:34.280Z,48.6
2022-08-22T18:29:22.136Z,48.6
2022-08-22T18:31:19.613Z,48.8
2022-08-22T18:33:17.097Z,48.9
2022-08-22T18:35:14.634Z,49
2022-08-22T18:37:12.048Z,49
2022-08-22T18:39:17.500Z,49.3
2022-08-22T18:41:14.994Z,49.4
2022-08-22T18:43:12.482Z,49.5
2022-08-22T18:47:07.458Z,49.9
2022-08-22T18:49:15.428Z,50
2022-08-22T18:51:02.456Z,50.1
2022-08-22T18:53:07.925Z,50.4
2022-08-22T18:55:05.380Z,50.5
2022-08-22T18:59:23.661Z,50.6
2022-08-22T19:01:21.264Z,50.7
2022-08-22T19:03:18.642Z,50.9
2022-08-22T19:07:21.609Z,51.8
2022-08-22T19:09:19.098Z,52.4
2022-08-22T19:11:16.770Z,52.9
2022-08-22T19:15:11.628Z,53.6
2022-08-22T19:19:17.658Z,54.8
2022-08-22T19:21:12.068Z,55.1
2022-08-22T19:23:09.552Z,55.4
2022-08-22T19:29:02.097Z,56.3
2022-08-22T19:30:59.594Z,56.5
2022-08-22T19:33:05.075Z,57.1
2022-08-22T19:42:52.665Z,58.2
2022-08-22T19:44:50.154Z,58.5
2022-08-22T19:46:55.692Z,58.9
2022-08-22T19:48:53.164Z,59.1
2022-08-22T19:50:50.692Z,59.3
2022-08-22T19:51:53.477Z,59.4
2022-08-22T19:53:50.950Z,59.5
2022-08-22T19:55:48.492Z,59.5
2022-08-22T19:59:51.512Z,59.8
2022-08-22T20:01:49.059Z,60
2022-08-22T20:09:39.170Z,60.6
2022-08-22T20:13:42.223Z,60.8
2022-08-22T20:15:39.756Z,60.9
2022-08-22T20:21:38.042Z,60.9
2022-08-22T20:23:29.928Z,61.1
2022-08-22T20:27:32.939Z,61.5
2022-08-22T20:29:30.527Z,61.7
2022-08-22T20:31:28.024Z,61.8
2022-08-22T20:33:25.570Z,61.9
2022-08-22T20:37:36.034Z,62.2
2022-08-22T20:39:19.705Z,62
2022-08-22T20:45:20.304Z,62.4
2022-08-22T20:48:20.586Z,62.9
2022-08-22T20:50:18.144Z,63.1
2022-08-22T20:54:21.164Z,63.6
2022-08-22T20:56:18.736Z,63.8
2022-08-22T21:00:13.865Z,64.1
2022-08-22T21:02:11.402Z,64.3
2022-08-22T21:04:08.925Z,64.4
2022-08-22T21:08:11.975Z,64.8
2022-08-22T21:10:09.542Z,65
2022-08-22T21:14:04.625Z,65.2
2022-08-22T21:16:02.175Z,65.3
2022-08-22T21:17:59.892Z,65.4
2022-08-22T21:22:02.804Z,65.5
2022-08-22T21:24:01.070Z,65.5
2022-08-22T21:25:57.903Z,65.6
2022-08-22T21:27:55.497Z,65.6
2022-08-22T21:29:53.016Z,65.7
2022-08-22T21:31:50.595Z,65.8
2022-08-22T21:33:48.152Z,65.9
2022-08-22T21:35:53.665Z,66.2
2022-08-22T21:37:51.227Z,66.4
2022-08-22T21:39:48.876Z,66.5
2022-08-22T21:40:51.525Z,66.7
2022-08-22T21:42:49.079Z,66.8
2022-08-22T21:46:44.230Z,67
2022-08-22T21:48:49.758Z,67.3
2022-08-22T21:52:44.912Z,67.5
2022-08-22T21:56:40.015Z,67.7
2022-08-22T22:00:35.257Z,67.9
2022-08-22T22:02:40.711Z,68.2
2022-08-22T22:04:38.260Z,68.2
2022-08-22T22:06:35.836Z,68.3
2022-08-22T22:08:33.394Z,68.3
2022-08-22T22:10:30.967Z,68.4
2022-08-22T22:12:28.511Z,68.6
2022-08-22T22:14:26.102Z,68.7
2022-08-22T22:16:31.641Z,69.1
2022-08-22T22:18:29.212Z,69.2
2022-08-22T22:20:26.772Z,69.4
2022-08-22T22:26:19.489Z,69.8
2022-08-22T22:28:17.086Z,69.8
2022-08-22T22:30:22.571Z,69.9
2022-08-22T22:32:20.171Z,69.9
2022-08-22T22:36:44.634Z,69.8
2022-08-22T22:38:42.237Z,69.9
2022-08-22T22:40:39.807Z,70
2022-08-22T22:42:45.325Z,70.2
2022-08-22T22:44:46.451Z,70.2
2022-08-22T22:46:40.479Z,70.5
2022-08-22T22:48:38.044Z,70.6
2022-08-22T22:54:30.813Z,71
2022-08-22T22:58:33.933Z,71.2
2022-08-22T23:00:31.553Z,71.2
2022-08-22T23:02:29.096Z,71.2
2022-08-22T23:04:26.654Z,71.2
2022-08-22T23:06:24.238Z,71.3
2022-08-22T23:08:21.859Z,71.4
2022-08-22T23:10:27.396Z,71.7
2022-08-22T23:12:24.986Z,71.9
2022-08-22T23:14:22.564Z,72.2
2022-08-22T23:16:20.127Z,72.4
2022-08-22T23:18:17.740Z,72.6
2022-08-22T23:20:15.325Z,72.7
2022-08-22T23:24:18.450Z,73.2
2022-08-22T23:26:16.029Z,73.4
2022-08-22T23:29:16.365Z,73.6
2022-08-22T23:31:13.951Z,73.8
2022-08-22T23:33:11.559Z,73.9
2022-08-22T23:35:09.165Z,74
2022-08-22T23:37:14.707Z,74
2022-08-22T23:39:12.468Z,74
2022-08-22T23:41:10.123Z,74
2022-08-22T23:43:07.466Z,74
2022-08-22T23:49:00.295Z,74.2
2022-08-22T23:53:03.414Z,74.7
2022-08-22T23:56:58.606Z,75
2022-08-22T23:58:56.203Z,75.2
